createdAt,value
2023-05-15T06:23:53.818Z,37.67
2023-05-15T06:26:21.252Z,37.53
2023-05-15T06:28:47.754Z,37.43
2023-05-15T06:31:14.219Z,37.93
2023-05-15T06:33:41.263Z,40.00
2023-05-15T06:36:07.846Z,33.37
2023-05-15T06:38:34.296Z,38.00
2023-05-15T06:41:00.782Z,35.37
2023-05-15T06:43:27.175Z,35.13
2023-05-15T06:45:53.688Z,34.43
2023-05-15T06:48:20.180Z,36.23
2023-05-15T06:50:46.682Z,36.10
2023-05-15T06:53:14.536Z,35.07
2023-05-15T06:55:41.205Z,38.37
2023-05-15T06:58:07.894Z,35.77
2023-05-15T07:00:34.315Z,33.23
2023-05-15T07:03:00.739Z,31.63
2023-05-15T07:05:27.513Z,30.13
2023-05-15T07:07:54.124Z,32.63
2023-05-15T07:10:20.577Z,30.97
2023-05-15T07:12:47.004Z,33.77
2023-05-15T07:15:13.448Z,35.13
2023-05-15T07:17:40.065Z,39.27
2023-05-15T07:20:06.917Z,36.40
2023-05-15T07:22:36.393Z,38.13
2023-05-15T07:25:08.374Z,38.30
2023-05-15T07:27:35.246Z,40.50
2023-05-15T07:30:03.842Z,38.97
2023-05-15T07:32:30.912Z,41.60
2023-05-15T07:34:57.297Z,34.90
2023-05-15T07:37:24.774Z,35.73
2023-05-15T07:39:51.370Z,34.50
2023-05-15T07:42:17.879Z,35.30
2023-05-15T07:44:45.455Z,33.53
2023-05-15T07:47:12.969Z,36.23
2023-05-15T07:49:39.442Z,36.07
2023-05-15T07:52:06.128Z,33.57
2023-05-15T07:54:32.712Z,39.07
2023-05-15T07:56:59.090Z,32.63
2023-05-15T07:59:25.582Z,37.93
2023-05-15T08:01:52.074Z,35.63
2023-05-15T08:04:18.567Z,35.53
2023-05-15T08:06:45.023Z,28.73
2023-05-15T08:09:12.962Z,29.73
2023-05-15T08:11:39.369Z,29.87
2023-05-15T08:14:05.862Z,28.80
2023-05-15T08:16:32.527Z,31.30
2023-05-15T08:19:04.699Z,31.40
2023-05-15T08:21:32.192Z,29.43
2023-05-15T08:23:59.901Z,31.23
2023-05-15T08:26:26.686Z,30.83
2023-05-15T08:28:53.134Z,29.73
2023-05-15T08:31:19.596Z,25.37
2023-05-15T08:33:46.107Z,28.93
2023-05-15T08:36:12.645Z,26.87
2023-05-15T08:38:39.112Z,28.83
2023-05-15T08:41:15.020Z,26.43
2023-05-15T08:43:42.195Z,28.87
2023-05-15T08:46:08.746Z,24.50
2023-05-15T08:48:37.175Z,27.07
2023-05-15T08:51:03.831Z,20.07
2023-05-15T08:53:30.844Z,22.30
2023-05-15T08:55:57.476Z,22.90
2023-05-15T08:58:26.047Z,30.37
2023-05-15T09:00:52.825Z,25.03
2023-05-15T09:03:22.843Z,24.27
2023-05-15T09:05:49.854Z,22.07
2023-05-15T09:08:17.179Z,20.10
2023-05-15T09:10:43.615Z,17.80
2023-05-15T09:13:11.499Z,17.33
2023-05-15T09:15:37.963Z,19.97
2023-05-15T09:18:04.519Z,17.97
2023-05-15T09:20:32.011Z,20.27
2023-05-15T09:22:59.945Z,20.00
2023-05-15T09:25:44.574Z,20.27
2023-05-15T09:28:25.379Z,22.33
2023-05-15T09:31:01.060Z,18.47
2023-05-15T09:33:34.042Z,21.23
2023-05-15T09:36:01.971Z,19.93
2023-05-15T09:38:28.539Z,19.93
2023-05-15T09:41:13.110Z,19.37
2023-05-15T09:43:40.613Z,18.77
2023-05-15T09:46:12.940Z,21.30
2023-05-15T09:48:39.500Z,17.37
2023-05-15T09:51:07.670Z,17.30
2023-05-15T09:53:34.598Z,22.67
2023-05-15T09:56:01.020Z,26.03
2023-05-15T09:58:27.459Z,20.90
2023-05-15T10:00:53.892Z,20.10
2023-05-15T10:03:20.888Z,19.53
2023-05-15T10:05:47.549Z,20.73
2023-05-15T10:08:15.783Z,20.27
2023-05-15T10:10:43.329Z,23.77
2023-05-15T10:13:10.583Z,23.80
2023-05-15T10:15:37.378Z,22.83
2023-05-15T10:18:07.900Z,28.50
2023-05-15T11:33:02.009Z,14.03
2023-05-15T11:35:39.181Z,16.60
2023-05-15T11:38:16.846Z,13.20
2023-05-15T11:40:48.687Z,15.50
2023-05-15T11:43:28.797Z,13.73
2023-05-15T11:46:07.298Z,17.10
2023-05-15T11:48:42.402Z,14.53
2023-05-15T11:51:27.432Z,11.90
2023-05-15T11:53:55.274Z,17.73
2023-05-15T11:56:24.540Z,14.87
2023-05-15T11:58:54.044Z,11.30
2023-05-15T12:01:20.846Z,14.07
2023-05-15T12:03:48.997Z,9.97
2023-05-15T12:06:16.305Z,14.80
2023-05-15T12:08:42.676Z,8.37
2023-05-15T12:11:09.142Z,5.80
2023-05-15T12:13:35.607Z,12.83
2023-05-15T12:16:05.880Z,7.60
2023-05-15T12:18:33.041Z,9.40
2023-05-15T12:20:59.700Z,13.03
2023-05-15T12:23:28.304Z,10.67
2023-05-15T12:25:58.640Z,10.07
2023-05-15T12:28:26.563Z,11.17
2023-05-15T12:30:53.248Z,11.80
2023-05-15T12:33:19.763Z,11.03
2023-05-15T12:35:59.151Z,16.00
2023-05-15T12:38:27.536Z,10.10
2023-05-15T12:40:54.327Z,13.30
2023-05-15T12:43:24.054Z,10.77
2023-05-15T12:45:52.672Z,12.53
2023-05-15T12:48:19.359Z,13.77
2023-05-15T12:50:45.781Z,14.83
2023-05-15T12:53:16.381Z,13.10
2023-05-15T12:55:45.286Z,10.47
2023-05-15T12:58:12.442Z,11.87
2023-05-15T13:00:41.642Z,10.60
2023-05-15T13:03:12.392Z,15.03
2023-05-15T13:05:41.905Z,11.63
2023-05-15T13:08:08.392Z,13.97
2023-05-15T13:10:36.548Z,12.10
2023-05-15T13:13:03.079Z,12.77
2023-05-15T13:15:37.638Z,13.30
2023-05-15T13:18:07.072Z,13.30
2023-05-15T13:20:35.866Z,10.47
2023-05-15T13:23:02.773Z,13.17
2023-05-15T13:25:31.898Z,12.77
2023-05-15T13:28:00.750Z,16.40
2023-05-15T13:30:28.274Z,13.93
2023-05-15T13:32:55.843Z,12.63
2023-05-15T13:35:22.764Z,17.40
2023-05-15T13:37:49.485Z,16.87
2023-05-15T13:40:15.901Z,13.70
2023-05-15T13:42:43.552Z,16.83
2023-05-15T13:45:11.961Z,15.83
2023-05-15T13:47:41.869Z,12.10
2023-05-15T13:50:09.728Z,11.83
2023-05-15T13:52:36.938Z,13.90
2023-05-15T13:55:04.665Z,11.47
2023-05-15T13:57:31.534Z,12.30
2023-05-15T13:59:58.496Z,9.90
2023-05-15T14:02:26.490Z,8.07
2023-05-15T14:04:53.638Z,9.63
2023-05-15T14:07:23.214Z,17.23
2023-05-15T14:09:53.491Z,7.27
2023-05-15T14:12:21.091Z,10.60
2023-05-15T14:14:48.090Z,14.57
2023-05-15T14:17:15.079Z,10.90
2023-05-15T14:19:41.577Z,11.00
2023-05-15T14:22:08.016Z,13.33
2023-05-15T14:24:34.434Z,9.57
2023-05-15T14:27:01.487Z,8.77
2023-05-15T14:29:28.238Z,12.57
2023-05-15T14:31:54.696Z,7.13
2023-05-15T14:34:22.484Z,5.67
2023-05-15T14:36:49.575Z,12.30
2023-05-15T14:39:16.331Z,14.73
2023-05-15T14:41:43.619Z,10.83
2023-05-15T14:44:10.244Z,14.87
2023-05-15T14:46:37.924Z,11.83
2023-05-15T14:49:05.003Z,8.93
2023-05-15T14:51:32.209Z,13.53
2023-05-15T14:53:58.783Z,9.10
2023-05-15T14:56:25.939Z,11.63
2023-05-15T14:58:53.826Z,10.53
2023-05-15T15:01:20.442Z,7.40
2023-05-15T15:03:47.425Z,14.87
2023-05-15T15:06:13.920Z,8.77
2023-05-15T15:08:40.399Z,13.60
2023-05-15T15:11:07.684Z,11.07
2023-05-15T15:13:34.100Z,18.03
2023-05-15T15:16:00.602Z,11.50
2023-05-15T15:18:27.189Z,8.67
2023-05-15T15:20:53.655Z,8.43
2023-05-15T15:23:20.098Z,12.20
2023-05-15T15:25:46.473Z,8.93
2023-05-15T15:28:13.182Z,10.07
2023-05-15T15:30:39.651Z,7.13
2023-05-15T15:33:06.119Z,10.77
2023-05-15T15:35:32.646Z,11.07
2023-05-15T15:37:59.210Z,12.03
2023-05-15T15:40:26.003Z,12.93
2023-05-15T15:42:54.390Z,11.77
2023-05-15T15:45:20.925Z,13.80
2023-05-15T15:47:47.412Z,9.73
2023-05-15T15:50:13.885Z,13.17
2023-05-15T15:52:40.509Z,9.37
2023-05-15T15:55:07.693Z,8.93
2023-05-15T15:57:34.158Z,12.40
2023-05-15T16:02:28.282Z,10.00
2023-05-15T16:04:54.903Z,6.03
2023-05-15T16:07:21.333Z,8.90
2023-05-15T16:09:51.390Z,8.10
2023-05-15T16:12:26.560Z,7.57
2023-05-15T16:14:53.948Z,8.63
2023-05-15T16:17:21.094Z,9.77
2023-05-15T16:19:48.569Z,12.93
2023-05-15T16:22:14.961Z,12.70
2023-05-15T16:24:41.416Z,9.87
2023-05-15T16:27:08.453Z,10.60
2023-05-15T16:29:35.200Z,10.50
2023-05-15T16:32:02.207Z,11.83
2023-05-15T16:34:28.756Z,11.90
2023-05-15T16:36:55.236Z,10.10
2023-05-15T16:39:22.049Z,10.70
2023-05-15T16:41:48.489Z,11.60
2023-05-15T16:44:15.030Z,10.43
2023-05-15T16:46:41.445Z,14.80
2023-05-15T16:49:08.405Z,13.27
2023-05-15T16:51:34.791Z,12.40
2023-05-15T17:11:10.058Z,15.07
2023-05-15T17:13:36.488Z,13.70
2023-05-15T17:16:02.927Z,12.63
2023-05-15T17:18:29.377Z,16.17
2023-05-15T17:20:55.969Z,15.47
2023-05-15T17:23:23.145Z,19.73
2023-05-15T17:25:49.763Z,14.23
2023-05-15T17:28:16.256Z,13.77
2023-05-15T17:30:42.693Z,14.30
2023-05-15T17:33:09.478Z,15.07
2023-05-15T17:35:35.979Z,15.93
2023-05-15T17:38:02.389Z,13.33
2023-05-15T17:40:28.797Z,13.73
2023-05-15T17:42:55.290Z,18.43
2023-05-15T17:45:22.016Z,15.43
2023-05-15T17:47:49.209Z,12.07
2023-05-15T17:50:16.088Z,12.00
2023-05-15T17:55:09.613Z,16.83
2023-05-15T17:57:36.052Z,17.90
2023-05-15T18:00:02.574Z,17.03
2023-05-15T18:02:29.164Z,15.37
2023-05-15T18:04:56.179Z,13.87
2023-05-15T18:58:40.325Z,13.53
2023-05-15T19:01:06.778Z,10.53
2023-05-15T19:03:36.975Z,11.50
2023-05-15T19:06:03.799Z,13.93
2023-05-15T19:08:30.500Z,11.93
2023-05-15T19:10:59.167Z,14.27
2023-05-15T19:13:29.800Z,11.30
2023-05-15T19:15:56.196Z,12.90
2023-05-15T19:18:22.577Z,14.10
2023-05-15T19:20:52.156Z,13.43
2023-05-15T19:23:20.475Z,11.40
2023-05-15T19:25:46.919Z,13.53
2023-05-15T19:28:14.753Z,10.50
2023-05-15T19:30:41.574Z,9.90
2023-05-15T19:33:08.216Z,9.10
2023-05-15T19:35:36.708Z,11.77
2023-05-15T19:38:03.967Z,13.53
2023-05-15T19:40:30.427Z,13.40
2023-05-15T19:42:56.788Z,14.00
2023-05-15T19:45:23.276Z,12.67
2023-05-15T19:47:49.709Z,13.10
2023-05-15T19:50:16.283Z,11.77
2023-05-15T19:52:44.723Z,9.73
2023-05-15T19:55:11.956Z,14.30
2023-05-15T19:57:40.378Z,13.53
2023-05-15T20:00:08.021Z,11.30
2023-05-15T20:02:34.627Z,12.97
2023-05-15T20:05:01.216Z,11.03
2023-05-15T20:07:27.892Z,10.20
2023-05-15T20:09:55.654Z,14.03
2023-05-15T20:12:22.076Z,10.30
2023-05-15T20:14:49.968Z,10.43
2023-05-15T20:17:17.234Z,13.33
2023-05-15T20:19:43.726Z,10.67
2023-05-15T20:22:10.185Z,12.50
2023-05-15T20:24:37.224Z,12.77
2023-05-15T20:27:04.042Z,8.53
2023-05-15T20:29:30.599Z,6.40
2023-05-15T20:31:57.423Z,6.70
2023-05-15T20:34:24.059Z,5.73
2023-05-15T20:36:52.834Z,4.60
2023-05-15T20:39:19.873Z,6.77
2023-05-15T20:41:46.413Z,7.33
2023-05-15T20:44:12.813Z,4.77
2023-05-15T20:46:40.188Z,6.10
2023-05-15T20:49:06.870Z,4.30
2023-05-15T20:51:33.470Z,9.00
2023-05-15T20:53:59.906Z,4.53
2023-05-15T20:56:26.411Z,3.57
2023-05-15T20:58:53.128Z,6.60
2023-05-15T21:01:19.683Z,4.97
2023-05-15T21:03:46.192Z,5.13
2023-05-15T21:06:14.243Z,3.37
2023-05-15T21:08:40.758Z,5.17
2023-05-15T21:11:07.473Z,8.37
2023-05-15T21:13:33.852Z,5.80
2023-05-15T21:16:00.699Z,5.83
2023-05-15T21:18:27.198Z,5.77
2023-05-15T21:20:53.590Z,4.77
2023-05-15T21:23:21.176Z,4.47
